Wetterdaten: Woche 10.07.17 - 16.07.17 (KW28)
Datum Zeit Temp. I. Temp. A. Feuchte I. Feuchte A. Luftdruck Regen Wind Richtung Sonnenschein UV Solar Taupunkt Windchill Windben
10.07.2017 00:00 26,8 C 20,1 C 56 % 84 % 1009,6 hPa 0,0 l/m 0,7 km/h (0 Bft) S-SO 0,00 h 0,0 UV-I 0 W/m 17,3 C 20,1 C 2,4 km/h (1 Bft)
10.07.2017 01:00 26,6 C 21,0 C 57 % 80 % 1008,6 hPa 0,0 l/m 2,1 km/h (1 Bft) S-SO 0,00 h 0,0 UV-I 0 W/m 17,3 C 21,0 C 5,3 km/h (1 Bft)
10.07.2017 02:00 26,6 C 19,9 C 57 % 84 % 1007,7 hPa 0,0 l/m 0,0 km/h (0 Bft) N 0,00 h 0,0 UV-I 0 W/m 17,0 C 19,9 C 0,0 km/h (0 Bft)
10.07.2017 03:00 26,6 C 18,6 C 57 % 88 % 1007,4 hPa 0,0 l/m 0,0 km/h (0 Bft) N 0,00 h 0,0 UV-I 0 W/m 16,6 C 18,6 C 0,1 km/h (0 Bft)
10.07.2017 04:00 26,5 C 19,3 C 57 % 84 % 1007,7 hPa 0,0 l/m 0,0 km/h (0 Bft) N 0,00 h 0,0 UV-I 0 W/m 16,5 C 19,3 C 0,0 km/h (0 Bft)
10.07.2017 05:00 26,3 C 18,9 C 57 % 87 % 1007,6 hPa 0,4 l/m 0,0 km/h (0 Bft) N 0,00 h 0,0 UV-I 8 W/m 16,6 C 18,9 C 0,0 km/h (0 Bft)
10.07.2017 06:00 26,3 C 18,7 C 57 % 90 % 1007,6 hPa 0,0 l/m 0,3 km/h (0 Bft) SW 0,00 h 0,0 UV-I 43 W/m 17,0 C 18,7 C 1,0 km/h (0 Bft)
10.07.2017 07:00 26,2 C 19,0 C 58 % 89 % 1007,7 hPa 0,0 l/m 1,8 km/h (1 Bft) S 0,00 h 0,0 UV-I 48 W/m 17,1 C 19,0 C 4,8 km/h (1 Bft)
10.07.2017 08:00 25,9 C 19,5 C 59 % 88 % 1007,8 hPa 0,0 l/m 1,7 km/h (1 Bft) S 0,52 h 0,9 UV-I 143 W/m 17,4 C 19,5 C 4,3 km/h (1 Bft)
10.07.2017 09:00 26,0 C 21,1 C 59 % 82 % 1007,7 hPa 0,0 l/m 2,5 km/h (1 Bft) S 1,00 h 2,4 UV-I 432 W/m 18,0 C 21,1 C 6,8 km/h (2 Bft)
10.07.2017 10:00 26,1 C 23,2 C 59 % 73 % 1007,7 hPa 0,0 l/m 5,9 km/h (2 Bft) S 1,00 h 3,5 UV-I 495 W/m 18,0 C 22,8 C 11,8 km/h (2 Bft)
10.07.2017 11:00 26,3 C 23,1 C 58 % 71 % 1007,6 hPa 0,0 l/m 8,1 km/h (2 Bft) S 0,90 h 2,5 UV-I 289 W/m 17,7 C 22,4 C 14,6 km/h (3 Bft)
10.07.2017 12:00 26,4 C 23,0 C 58 % 72 % 1007,5 hPa 0,0 l/m 9,3 km/h (2 Bft) S 1,00 h 3,9 UV-I 422 W/m 17,7 C 22,1 C 16,5 km/h (3 Bft)
10.07.2017 13:00 26,4 C 23,5 C 56 % 66 % 1007,3 hPa 0,0 l/m 12,2 km/h (2 Bft) S 1,00 h 5,5 UV-I 591 W/m 16,9 C 22,1 C 21,4 km/h (4 Bft)
10.07.2017 14:00 26,8 C 25,2 C 56 % 60 % 1006,8 hPa 0,0 l/m 11,2 km/h (2 Bft) S 1,00 h 5,8 UV-I 721 W/m 16,8 C 24,2 C 20,1 km/h (4 Bft)
10.07.2017 15:00 27,0 C 24,7 C 55 % 62 % 1006,5 hPa 0,0 l/m 9,4 km/h (2 Bft) S 0,52 h 2,9 UV-I 308 W/m 16,8 C 23,9 C 17,5 km/h (3 Bft)
10.07.2017 16:00 26,9 C 21,8 C 56 % 81 % 1006,9 hPa 0,0 l/m 3,5 km/h (1 Bft) W 0,73 h 1,7 UV-I 241 W/m 18,3 C 21,7 C 8,1 km/h (2 Bft)
10.07.2017 17:00 26,9 C 23,2 C 58 % 70 % 1006,7 hPa 0,0 l/m 7,0 km/h (2 Bft) S 1,00 h 1,7 UV-I 268 W/m 17,4 C 22,7 C 13,5 km/h (3 Bft)
10.07.2017 18:00 27,1 C 22,9 C 57 % 68 % 1006,8 hPa 0,0 l/m 6,6 km/h (2 Bft) S 0,12 h 1,0 UV-I 113 W/m 16,8 C 22,5 C 12,8 km/h (3 Bft)
10.07.2017 19:00 27,0 C 22,2 C 56 % 72 % 1006,9 hPa 0,0 l/m 4,0 km/h (1 Bft) S 0,00 h 0,6 UV-I 40 W/m 16,9 C 22,1 C 10,1 km/h (2 Bft)
10.07.2017 20:00 26,7 C 21,2 C 56 % 76 % 1006,9 hPa 0,0 l/m 1,8 km/h (1 Bft) S 0,00 h 0,0 UV-I 16 W/m 16,9 C 21,2 C 5,1 km/h (1 Bft)
10.07.2017 21:00 27,0 C 20,7 C 57 % 79 % 1007,4 hPa 0,0 l/m 4,6 km/h (1 Bft) W-SW 0,00 h 0,0 UV-I 5 W/m 16,9 C 20,5 C 9,5 km/h (2 Bft)
10.07.2017 22:00 27,1 C 19,8 C 57 % 81 % 1007,7 hPa 0,0 l/m 1,2 km/h (1 Bft) W 0,00 h 0,0 UV-I 0 W/m 16,4 C 19,8 C 3,4 km/h (1 Bft)
10.07.2017 23:00 26,7 C 19,2 C 57 % 82 % 1008,2 hPa 0,0 l/m 1,3 km/h (1 Bft) W-SW 0,00 h 0,0 UV-I 0 W/m 16,1 C 19,2 C 3,8 km/h (1 Bft)
11.07.2017 00:00 26,6 C 18,7 C 56 % 84 % 1008,4 hPa 0,0 l/m 0,7 km/h (0 Bft) W-SW 0,00 h 0,0 UV-I 0 W/m 15,9 C 18,7 C 2,4 km/h (1 Bft)
11.07.2017 01:00 26,4 C 18,3 C 56 % 85 % 1009,0 hPa 0,0 l/m 1,7 km/h (1 Bft) SW 0,00 h 0,0 UV-I 0 W/m 15,8 C 18,3 C 5,1 km/h (1 Bft)
11.07.2017 02:00 26,3 C 18,2 C 56 % 87 % 1009,0 hPa 0,0 l/m 2,8 km/h (1 Bft) W-SW 0,00 h 0,0 UV-I 0 W/m 16,0 C 18,1 C 6,0 km/h (2 Bft)
11.07.2017 03:00 26,4 C 18,0 C 57 % 89 % 1008,8 hPa 0,0 l/m 0,5 km/h (0 Bft) W-SW 0,00 h 0,0 UV-I 0 W/m 16,1 C 18,0 C 1,4 km/h (1 Bft)
11.07.2017 04:00 26,1 C 17,8 C 57 % 89 % 1008,8 hPa 0,0 l/m 1,8 km/h (1 Bft) SW 0,00 h 0,0 UV-I 0 W/m 16,0 C 17,8 C 5,2 km/h (1 Bft)
11.07.2017 05:00 25,9 C 17,3 C 57 % 91 % 1009,2 hPa 1,4 l/m 2,0 km/h (1 Bft) SW 0,00 h 0,0 UV-I 6 W/m 15,9 C 17,3 C 5,8 km/h (1 Bft)
11.07.2017 06:00 26,0 C 16,4 C 57 % 94 % 1009,6 hPa 3,2 l/m 3,4 km/h (1 Bft) W-SW 0,00 h 0,0 UV-I 13 W/m 15,5 C 16,2 C 7,4 km/h (2 Bft)
11.07.2017 07:00 26,2 C 16,3 C 57 % 95 % 1009,9 hPa 1,4 l/m 1,3 km/h (1 Bft) W-SW 0,00 h 0,0 UV-I 29 W/m 15,5 C 16,3 C 3,8 km/h (1 Bft)
11.07.2017 08:00 26,2 C 16,1 C 57 % 96 % 1010,2 hPa 4,8 l/m 1,1 km/h (1 Bft) W-SW 0,00 h 0,0 UV-I 21 W/m 15,5 C 16,1 C 3,3 km/h (1 Bft)
11.07.2017 09:00 26,2 C 16,0 C 57 % 96 % 1010,8 hPa 2,8 l/m 2,8 km/h (1 Bft) W-SW 0,22 h 1,5 UV-I 97 W/m 15,4 C 15,9 C 6,8 km/h (2 Bft)
11.07.2017 10:00 26,4 C 16,9 C 57 % 95 % 1011,3 hPa 0,2 l/m 5,1 km/h (1 Bft) W 1,00 h 2,1 UV-I 303 W/m 16,1 C 16,6 C 10,5 km/h (2 Bft)
11.07.2017 11:00 26,4 C 17,1 C 56 % 93 % 1011,7 hPa 0,2 l/m 4,3 km/h (1 Bft) W-SW 0,73 h 1,7 UV-I 195 W/m 16,0 C 16,8 C 9,5 km/h (2 Bft)
11.07.2017 12:00 26,5 C 18,3 C 57 % 91 % 1011,9 hPa 0,0 l/m 5,6 km/h (1 Bft) W-SW 0,90 h 4,4 UV-I 553 W/m 16,7 C 17,9 C 10,9 km/h (2 Bft)
11.07.2017 13:00 26,2 C 18,4 C 57 % 87 % 1012,0 hPa 8,2 l/m 6,3 km/h (2 Bft) W-SW 0,40 h 2,0 UV-I 173 W/m 16,2 C 17,7 C 11,9 km/h (2 Bft)
11.07.2017 14:00 26,4 C 16,9 C 57 % 93 % 1012,6 hPa 1,0 l/m 6,6 km/h (2 Bft) W-SW 0,80 h 2,3 UV-I 297 W/m 15,7 C 16,0 C 12,8 km/h (3 Bft)
11.07.2017 15:00 26,6 C 19,0 C 56 % 83 % 1012,6 hPa 0,0 l/m 8,7 km/h (2 Bft) W-SW 1,00 h 4,4 UV-I 621 W/m 16,1 C 18,0 C 15,1 km/h (3 Bft)
11.07.2017 16:00 26,5 C 19,9 C 56 % 76 % 1012,5 hPa 0,0 l/m 6,3 km/h (2 Bft) W 1,00 h 2,5 UV-I 367 W/m 15,5 C 19,3 C 11,1 km/h (2 Bft)
11.07.2017 17:00 26,5 C 19,7 C 55 % 74 % 1012,1 hPa 0,0 l/m 4,1 km/h (1 Bft) W 0,38 h 1,1 UV-I 180 W/m 14,9 C 19,5 C 8,1 km/h (2 Bft)
11.07.2017 18:00 26,5 C 20,3 C 53 % 68 % 1011,7 hPa 0,0 l/m 6,5 km/h (2 Bft) W-SW 0,10 h 1,0 UV-I 117 W/m 14,2 C 19,8 C 12,6 km/h (3 Bft)
11.07.2017 19:00 26,5 C 19,7 C 52 % 68 % 1011,8 hPa 0,0 l/m 3,4 km/h (1 Bft) W-SW 0,00 h 0,6 UV-I 50 W/m 13,7 C 19,6 C 7,8 km/h (2 Bft)
11.07.2017 20:00 26,7 C 18,6 C 52 % 71 % 1012,2 hPa 0,0 l/m 0,6 km/h (0 Bft) W-SW 0,00 h 0,0 UV-I 19 W/m 13,3 C 18,6 C 2,1 km/h (1 Bft)
11.07.2017 21:00 26,7 C 17,3 C 52 % 75 % 1012,7 hPa 0,0 l/m 0,7 km/h (0 Bft) SW 0,00 h 0,0 UV-I 5 W/m 12,9 C 17,3 C 2,3 km/h (1 Bft)
11.07.2017 22:00 26,6 C 15,8 C 52 % 81 % 1013,2 hPa 0,0 l/m 0,0 km/h (0 Bft) N 0,00 h 0,0 UV-I 0 W/m 12,6 C 15,8 C 0,0 km/h (0 Bft)
11.07.2017 23:00 26,4 C 13,9 C 52 % 90 % 1013,5 hPa 0,0 l/m 0,0 km/h (0 Bft) N 0,00 h 0,0 UV-I 0 W/m 12,3 C 13,9 C 0,0 km/h (0 Bft)
12.07.2017 00:00 26,2 C 13,1 C 52 % 93 % 1013,7 hPa 0,0 l/m 0,0 km/h (0 Bft) N 0,00 h 0,0 UV-I 0 W/m 12,0 C 13,1 C 0,0 km/h (0 Bft)
12.07.2017 01:00 26,2 C 12,6 C 52 % 94 % 1013,4 hPa 0,0 l/m 0,0 km/h (0 Bft) N 0,00 h 0,0 UV-I 0 W/m 11,7 C 12,6 C 0,0 km/h (0 Bft)
12.07.2017 02:00 26,1 C 11,9 C 52 % 95 % 1013,2 hPa 0,0 l/m 0,0 km/h (0 Bft) N 0,00 h 0,0 UV-I 0 W/m 11,0 C 11,9 C 0,0 km/h (0 Bft)
12.07.2017 03:00 25,9 C 11,8 C 52 % 96 % 1012,8 hPa 0,0 l/m 0,0 km/h (0 Bft) N 0,00 h 0,0 UV-I 0 W/m 11,2 C 11,8 C 0,0 km/h (0 Bft)
12.07.2017 04:00 26,0 C 12,3 C 52 % 95 % 1012,3 hPa 0,0 l/m 0,0 km/h (0 Bft) N 0,00 h 0,0 UV-I 0 W/m 11,5 C 12,3 C 0,0 km/h (0 Bft)
12.07.2017 05:00 25,9 C 12,3 C 51 % 95 % 1012,2 hPa 0,0 l/m 0,0 km/h (0 Bft) N 0,00 h 0,0 UV-I 13 W/m 11,6 C 12,3 C 0,0 km/h (0 Bft)
12.07.2017 06:00 25,8 C 14,1 C 51 % 94 % 1012,1 hPa 0,0 l/m 1,1 km/h (1 Bft) S 0,00 h 0,0 UV-I 50 W/m 13,1 C 14,1 C 2,8 km/h (1 Bft)
12.07.2017 07:00 25,8 C 15,9 C 52 % 90 % 1012,0 hPa 0,0 l/m 2,9 km/h (1 Bft) S 0,12 h 0,7 UV-I 103 W/m 14,3 C 15,8 C 6,4 km/h (2 Bft)
12.07.2017 08:00 25,8 C 17,2 C 52 % 86 % 1012,0 hPa 0,0 l/m 1,7 km/h (1 Bft) S 0,93 h 1,3 UV-I 215 W/m 14,9 C 17,2 C 4,1 km/h (1 Bft)
12.07.2017 09:00 26,0 C 19,0 C 53 % 78 % 1011,3 hPa 0,0 l/m 4,7 km/h (1 Bft) S 1,00 h 2,5 UV-I 457 W/m 15,0 C 18,7 C 9,3 km/h (2 Bft)
12.07.2017 10:00 26,1 C 20,5 C 52 % 69 % 1010,8 hPa 0,0 l/m 5,6 km/h (1 Bft) S 1,00 h 3,6 UV-I 484 W/m 14,7 C 20,2 C 11,5 km/h (2 Bft)
12.07.2017 11:00 26,2 C 21,1 C 52 % 65 % 1010,2 hPa 0,0 l/m 8,4 km/h (2 Bft) S-SW 1,00 h 3,7 UV-I 401 W/m 14,2 C 20,1 C 15,6 km/h (3 Bft)
12.07.2017 12:00 26,2 C 20,9 C 52 % 64 % 1009,7 hPa 0,0 l/m 11,2 km/h (2 Bft) S 1,00 h 3,3 UV-I 344 W/m 13,9 C 19,4 C 19,6 km/h (3 Bft)
12.07.2017 13:00 26,1 C 20,7 C 50 % 64 % 1009,1 hPa 0,0 l/m 5,5 km/h (1 Bft) SW 0,70 h 2,7 UV-I 281 W/m 13,6 C 20,3 C 12,0 km/h (2 Bft)
12.07.2017 14:00 26,2 C 20,8 C 50 % 64 % 1008,8 hPa 0,4 l/m 8,2 km/h (2 Bft) SW 0,57 h 1,7 UV-I 182 W/m 13,7 C 20,0 C 15,8 km/h (3 Bft)
12.07.2017 15:00 26,3 C 18,2 C 52 % 86 % 1008,8 hPa 0,2 l/m 4,0 km/h (1 Bft) W-SW 0,33 h 1,3 UV-I 143 W/m 15,8 C 18,1 C 9,5 km/h (2 Bft)
12.07.2017 16:00 25,7 C 17,8 C 56 % 91 % 1008,8 hPa 0,6 l/m 4,4 km/h (1 Bft) W-SW 0,45 h 1,2 UV-I 148 W/m 16,3 C 17,5 C 10,8 km/h (2 Bft)
12.07.2017 17:00 25,5 C 17,9 C 58 % 90 % 1008,7 hPa 3,0 l/m 7,2 km/h (2 Bft) W-SW 0,28 h 1,6 UV-I 125 W/m 16,2 C 17,1 C 15,2 km/h (3 Bft)
12.07.2017 18:00 25,9 C 17,2 C 57 % 93 % 1008,8 hPa 0,2 l/m 8,2 km/h (2 Bft) W-SW 0,25 h 0,9 UV-I 98 W/m 16,1 C 16,2 C 15,8 km/h (3 Bft)
12.07.2017 19:00 26,1 C 16,7 C 57 % 92 % 1009,0 hPa 1,2 l/m 6,7 km/h (2 Bft) W-SW 0,00 h 0,0 UV-I 23 W/m 15,4 C 16,0 C 13,8 km/h (3 Bft)
12.07.2017 20:00 26,3 C 15,5 C 57 % 90 % 1010,2 hPa 0,2 l/m 8,3 km/h (2 Bft) W 0,00 h 0,0 UV-I 37 W/m 13,9 C 14,4 C 17,2 km/h (3 Bft)
12.07.2017 21:00 26,4 C 14,6 C 57 % 90 % 1011,6 hPa 0,0 l/m 4,0 km/h (1 Bft) W 0,00 h 0,0 UV-I 6 W/m 13,0 C 14,4 C 9,3 km/h (2 Bft)
12.07.2017 22:00 26,3 C 14,1 C 56 % 89 % 1013,2 hPa 0,0 l/m 4,0 km/h (1 Bft) W 0,00 h 0,0 UV-I 0 W/m 12,4 C 14,0 C 9,2 km/h (2 Bft)
12.07.2017 23:00 26,1 C 14,1 C 56 % 89 % 1014,1 hPa 0,0 l/m 4,5 km/h (1 Bft) W 0,00 h 0,0 UV-I 0 W/m 12,3 C 13,8 C 11,2 km/h (2 Bft)
13.07.2017 00:00 25,9 C 13,9 C 55 % 90 % 1015,1 hPa 0,0 l/m 5,1 km/h (1 Bft) W 0,00 h 0,0 UV-I 0 W/m 12,3 C 13,4 C 12,9 km/h (3 Bft)
13.07.2017 01:00 25,8 C 13,4 C 55 % 90 % 1016,4 hPa 0,0 l/m 8,4 km/h (2 Bft) NW 0,00 h 0,0 UV-I 0 W/m 11,8 C 11,7 C 15,3 km/h (3 Bft)
13.07.2017 02:00 25,7 C 12,0 C 55 % 91 % 1017,4 hPa 0,0 l/m 6,1 km/h (2 Bft) NW 0,00 h 0,0 UV-I 0 W/m 10,5 C 10,8 C 11,4 km/h (2 Bft)
13.07.2017 03:00 25,8 C 11,0 C 55 % 90 % 1017,8 hPa 0,0 l/m 5,2 km/h (1 Bft) NW 0,00 h 0,0 UV-I 0 W/m 9,5 C 10,1 C 9,0 km/h (2 Bft)
13.07.2017 04:00 25,8 C 9,9 C 55 % 91 % 1018,5 hPa 0,0 l/m 2,8 km/h (1 Bft) NW 0,00 h 0,0 UV-I 0 W/m 8,4 C 9,9 C 5,7 km/h (1 Bft)
13.07.2017 05:00 25,7 C 9,2 C 54 % 90 % 1019,3 hPa 0,0 l/m 0,7 km/h (0 Bft) NW 0,00 h 0,0 UV-I 9 W/m 7,7 C 9,2 C 2,0 km/h (1 Bft)
13.07.2017 06:00 25,7 C 9,2 C 53 % 90 % 1019,8 hPa 0,0 l/m 0,0 km/h (0 Bft) N 0,00 h 0,0 UV-I 28 W/m 7,7 C 9,2 C 0,0 km/h (0 Bft)
13.07.2017 07:00 25,7 C 10,4 C 52 % 87 % 1020,4 hPa 0,0 l/m 0,6 km/h (0 Bft) W 0,50 h 0,8 UV-I 207 W/m 8,3 C 10,4 C 2,2 km/h (1 Bft)
13.07.2017 08:00 25,7 C 12,3 C 50 % 80 % 1020,7 hPa 0,0 l/m 2,8 km/h (1 Bft) W-NW 0,98 h 1,5 UV-I 352 W/m 8,9 C 12,2 C 4,4 km/h (1 Bft)
13.07.2017 09:00 25,7 C 13,7 C 50 % 72 % 1021,1 hPa 0,0 l/m 5,2 km/h (1 Bft) NW 1,00 h 2,4 UV-I 492 W/m 8,7 C 13,4 C 9,7 km/h (2 Bft)
13.07.2017 10:00 25,7 C 13,8 C 49 % 69 % 1021,3 hPa 0,0 l/m 2,5 km/h (1 Bft) W-NW 1,00 h 2,6 UV-I 340 W/m 8,2 C 13,8 C 5,8 km/h (2 Bft)
13.07.2017 11:00 25,6 C 14,6 C 47 % 65 % 1021,4 hPa 0,0 l/m 2,5 km/h (1 Bft) W-NW 1,00 h 3,3 UV-I 363 W/m 8,1 C 14,6 C 6,1 km/h (2 Bft)
13.07.2017 12:00 25,7 C 15,3 C 47 % 64 % 1021,5 hPa 0,0 l/m 1,8 km/h (1 Bft) NW 1,00 h 4,2 UV-I 412 W/m 8,5 C 15,2 C 4,1 km/h (1 Bft)
13.07.2017 13:00 25,7 C 17,2 C 44 % 58 % 1021,4 hPa 0,0 l/m 2,6 km/h (1 Bft) N 1,00 h 6,2 UV-I 793 W/m 9,0 C 17,2 C 4,7 km/h (1 Bft)
13.07.2017 14:00 25,3 C 18,2 C 42 % 56 % 1021,1 hPa 0,0 l/m 3,2 km/h (1 Bft) N 1,00 h 6,2 UV-I 845 W/m 9,2 C 18,1 C 5,0 km/h (1 Bft)
13.07.2017 15:00 25,5 C 19,0 C 41 % 53 % 1020,5 hPa 0,0 l/m 2,3 km/h (1 Bft) W-NW 1,00 h 5,2 UV-I 778 W/m 9,1 C 18,9 C 3,6 km/h (1 Bft)
13.07.2017 16:00 25,5 C 19,1 C 41 % 52 % 1019,9 hPa 0,0 l/m 1,8 km/h (1 Bft) N 1,00 h 3,8 UV-I 656 W/m 9,0 C 19,1 C 3,9 km/h (1 Bft)
13.07.2017 17:00 25,5 C 18,8 C 40 % 51 % 1019,5 hPa 0,0 l/m 1,7 km/h (1 Bft) NW 1,00 h 2,3 UV-I 497 W/m 8,5 C 18,8 C 3,4 km/h (1 Bft)
13.07.2017 18:00 25,4 C 18,0 C 39 % 52 % 1019,1 hPa 0,0 l/m 0,1 km/h (0 Bft) N 0,02 h 1,2 UV-I 49 W/m 7,9 C 18,0 C 0,1 km/h (0 Bft)
13.07.2017 19:00 25,1 C 17,4 C 39 % 56 % 1018,8 hPa 0,0 l/m 1,0 km/h (0 Bft) N 0,00 h 0,0 UV-I 31 W/m 8,4 C 17,4 C 1,2 km/h (1 Bft)
13.07.2017 20:00 25,4 C 16,3 C 41 % 60 % 1018,7 hPa 0,0 l/m 0,0 km/h (0 Bft) N 0,00 h 0,0 UV-I 20 W/m 8,5 C 16,3 C 0,0 km/h (0 Bft)
13.07.2017 21:00 25,7 C 14,5 C 43 % 68 % 1018,8 hPa 0,0 l/m 0,0 km/h (0 Bft) N 0,00 h 0,0 UV-I 6 W/m 8,7 C 14,5 C 0,0 km/h (0 Bft)
13.07.2017 22:00 25,8 C 12,3 C 44 % 81 % 1018,9 hPa 0,0 l/m 0,0 km/h (0 Bft) N 0,00 h 0,0 UV-I 0 W/m 9,1 C 12,3 C 0,0 km/h (0 Bft)
13.07.2017 23:00 25,6 C 11,0 C 44 % 87 % 1018,7 hPa 0,0 l/m 0,0 km/h (0 Bft) N 0,00 h 0,0 UV-I 0 W/m 9,0 C 11,0 C 0,0 km/h (0 Bft)
14.07.2017 00:00 25,5 C 10,2 C 45 % 90 % 1018,6 hPa 0,0 l/m 0,0 km/h (0 Bft) N 0,00 h 0,0 UV-I 0 W/m 8,7 C 10,2 C 0,0 km/h (0 Bft)
14.07.2017 01:00 25,4 C 9,7 C 46 % 92 % 1018,3 hPa 0,0 l/m 0,0 km/h (0 Bft) N 0,00 h 0,0 UV-I 0 W/m 8,5 C 9,7 C 0,0 km/h (0 Bft)
14.07.2017 02:00 25,4 C 9,7 C 46 % 92 % 1017,8 hPa 0,0 l/m 0,0 km/h (0 Bft) N 0,00 h 0,0 UV-I 0 W/m 8,4 C 9,7 C 0,0 km/h (0 Bft)
14.07.2017 03:00 25,2 C 9,6 C 47 % 89 % 1017,5 hPa 0,0 l/m 0,0 km/h (0 Bft) N 0,00 h 0,0 UV-I 0 W/m 7,8 C 9,6 C 0,0 km/h (0 Bft)
14.07.2017 04:00 24,6 C 8,6 C 48 % 93 % 1017,2 hPa 0,0 l/m 0,0 km/h (0 Bft) N 0,00 h 0,0 UV-I 0 W/m 7,5 C 8,6 C 0,0 km/h (0 Bft)
14.07.2017 05:00 24,3 C 8,8 C 48 % 94 % 1017,0 hPa 0,0 l/m 0,0 km/h (0 Bft) N 0,00 h 0,0 UV-I 11 W/m 7,8 C 8,8 C 0,0 km/h (0 Bft)
14.07.2017 06:00 24,3 C 9,1 C 48 % 94 % 1016,9 hPa 0,0 l/m 0,0 km/h (0 Bft) N 0,00 h 0,0 UV-I 46 W/m 8,2 C 9,1 C 0,0 km/h (0 Bft)
14.07.2017 07:00 24,2 C 11,4 C 48 % 89 % 1016,6 hPa 0,0 l/m 0,0 km/h (0 Bft) N 0,08 h 0,5 UV-I 108 W/m 9,7 C 11,4 C 0,0 km/h (0 Bft)
14.07.2017 08:00 24,6 C 12,9 C 48 % 82 % 1016,4 hPa 0,0 l/m 0,0 km/h (0 Bft) N 0,47 h 0,9 UV-I 143 W/m 9,9 C 12,9 C 0,0 km/h (0 Bft)
14.07.2017 09:00 25,1 C 14,1 C 47 % 77 % 1016,3 hPa 0,0 l/m 0,0 km/h (0 Bft) N 0,73 h 1,3 UV-I 198 W/m 10,1 C 14,1 C 0,0 km/h (0 Bft)
14.07.2017 10:00 24,9 C 15,3 C 46 % 74 % 1016,1 hPa 0,0 l/m 0,3 km/h (0 Bft) S 1,00 h 2,3 UV-I 290 W/m 10,8 C 15,3 C 0,8 km/h (0 Bft)
14.07.2017 11:00 25,0 C 17,4 C 46 % 65 % 1015,9 hPa 0,0 l/m 0,8 km/h (0 Bft) O-SO 0,68 h 3,0 UV-I 386 W/m 10,8 C 17,4 C 2,3 km/h (1 Bft)
14.07.2017 12:00 25,2 C 18,5 C 46 % 60 % 1015,7 hPa 0,0 l/m 2,0 km/h (1 Bft) SW 0,85 h 3,8 UV-I 485 W/m 10,5 C 18,5 C 4,1 km/h (1 Bft)
14.07.2017 13:00 25,1 C 20,0 C 44 % 50 % 1015,3 hPa 0,0 l/m 7,2 km/h (2 Bft) W 1,00 h 4,7 UV-I 597 W/m 9,2 C 19,2 C 11,0 km/h (2 Bft)
14.07.2017 14:00 24,7 C 18,3 C 41 % 56 % 1015,2 hPa 0,0 l/m 7,1 km/h (2 Bft) W-SW 0,87 h 1,9 UV-I 219 W/m 9,2 C 17,6 C 13,7 km/h (3 Bft)
14.07.2017 15:00 24,7 C 18,7 C 42 % 55 % 1015,0 hPa 0,0 l/m 2,7 km/h (1 Bft) W 1,00 h 2,5 UV-I 310 W/m 9,5 C 18,7 C 5,8 km/h (2 Bft)
14.07.2017 16:00 24,6 C 18,6 C 40 % 52 % 1014,8 hPa 0,0 l/m 4,7 km/h (1 Bft) W-NW 0,28 h 1,0 UV-I 133 W/m 8,7 C 18,4 C 8,9 km/h (2 Bft)
14.07.2017 17:00 24,4 C 17,5 C 41 % 61 % 1014,7 hPa 0,0 l/m 3,4 km/h (1 Bft) W-SW 0,22 h 0,8 UV-I 121 W/m 9,8 C 17,4 C 8,0 km/h (2 Bft)
14.07.2017 18:00 24,9 C 17,1 C 43 % 67 % 1014,5 hPa 0,0 l/m 1,6 km/h (1 Bft) S 0,32 h 0,9 UV-I 116 W/m 10,8 C 16,8 C 3,6 km/h (1 Bft)
14.07.2017 19:00 25,3 C 13,5 C 45 % 87 % 1015,3 hPa 1,0 l/m 3,2 km/h (1 Bft) NW 0,00 h 0,0 UV-I 36 W/m 11,3 C 13,0 C 5,6 km/h (1 Bft)
14.07.2017 20:00 25,4 C 12,6 C 47 % 91 % 1015,1 hPa 0,0 l/m 0,0 km/h (0 Bft) N 0,00 h 0,0 UV-I 32 W/m 11,1 C 12,6 C 0,0 km/h (0 Bft)
14.07.2017 21:00 25,7 C 12,1 C 47 % 92 % 1015,7 hPa 0,0 l/m 0,0 km/h (0 Bft) N 0,00 h 0,0 UV-I 8 W/m 10,9 C 12,1 C 0,0 km/h (0 Bft)
14.07.2017 22:00 25,7 C 11,3 C 48 % 94 % 1016,1 hPa 0,0 l/m 0,0 km/h (0 Bft) N 0,00 h 0,0 UV-I 0 W/m 10,5 C 11,3 C 0,0 km/h (0 Bft)
14.07.2017 23:00 25,7 C 10,7 C 49 % 96 % 1016,0 hPa 0,0 l/m 0,1 km/h (0 Bft) O-NO 0,00 h 0,0 UV-I 0 W/m 10,0 C 10,7 C 0,4 km/h (0 Bft)
15.07.2017 00:00 25,7 C 10,7 C 50 % 96 % 1016,0 hPa 0,0 l/m 0,1 km/h (0 Bft) NO 0,00 h 0,0 UV-I 0 W/m 10,0 C 10,7 C 0,3 km/h (0 Bft)
15.07.2017 01:00 25,7 C 11,0 C 49 % 96 % 1016,8 hPa 7,2 l/m 4,0 km/h (1 Bft) W 0,00 h 0,0 UV-I 0 W/m 10,4 C 10,2 C 7,7 km/h (2 Bft)
15.07.2017 02:00 25,7 C 10,5 C 50 % 96 % 1016,8 hPa 4,4 l/m 1,4 km/h (1 Bft) N 0,00 h 0,0 UV-I 0 W/m 9,9 C 10,4 C 2,0 km/h (1 Bft)
15.07.2017 03:00 25,1 C 10,2 C 50 % 96 % 1016,7 hPa 0,0 l/m 0,0 km/h (0 Bft) N 0,00 h 0,0 UV-I 0 W/m 9,6 C 10,2 C 0,0 km/h (0 Bft)
15.07.2017 04:00 25,0 C 10,4 C 51 % 97 % 1016,8 hPa 1,0 l/m 0,0 km/h (0 Bft) N 0,00 h 0,0 UV-I 0 W/m 9,9 C 10,4 C 0,0 km/h (0 Bft)
15.07.2017 05:00 24,9 C 10,3 C 51 % 97 % 1016,9 hPa 3,2 l/m 0,0 km/h (0 Bft) N 0,00 h 0,0 UV-I 0 W/m 9,9 C 10,3 C 0,0 km/h (0 Bft)
15.07.2017 06:00 24,9 C 10,4 C 51 % 97 % 1017,5 hPa 4,4 l/m 0,0 km/h (0 Bft) N 0,00 h 0,0 UV-I 12 W/m 9,9 C 10,4 C 0,0 km/h (0 Bft)
15.07.2017 07:00 25,4 C 11,0 C 50 % 97 % 1018,1 hPa 0,4 l/m 0,0 km/h (0 Bft) N 0,00 h 0,5 UV-I 52 W/m 10,5 C 11,0 C 0,0 km/h (0 Bft)
15.07.2017 08:00 25,5 C 11,8 C 50 % 97 % 1018,6 hPa 0,0 l/m 1,8 km/h (1 Bft) W-NW 0,43 h 1,2 UV-I 186 W/m 11,3 C 11,7 C 4,7 km/h (1 Bft)
15.07.2017 09:00 25,5 C 12,8 C 50 % 92 % 1019,2 hPa 0,0 l/m 3,2 km/h (1 Bft) W-NW 0,93 h 1,6 UV-I 335 W/m 11,6 C 12,7 C 8,2 km/h (2 Bft)
15.07.2017 10:00 25,6 C 13,9 C 50 % 86 % 1019,7 hPa 0,0 l/m 6,1 km/h (2 Bft) NW 1,00 h 2,5 UV-I 364 W/m 11,5 C 13,1 C 11,4 km/h (2 Bft)
15.07.2017 11:00 25,6 C 13,7 C 50 % 85 % 1020,4 hPa 0,0 l/m 2,7 km/h (1 Bft) W-NW 1,00 h 2,2 UV-I 258 W/m 11,2 C 13,6 C 6,0 km/h (2 Bft)
15.07.2017 12:00 25,5 C 14,6 C 50 % 83 % 1020,8 hPa 0,0 l/m 1,2 km/h (1 Bft) W-NW 0,73 h 2,5 UV-I 274 W/m 11,7 C 14,6 C 2,5 km/h (1 Bft)
15.07.2017 13:00 25,4 C 15,8 C 49 % 78 % 1021,0 hPa 0,0 l/m 2,9 km/h (1 Bft) W-NW 0,93 h 4,2 UV-I 535 W/m 11,9 C 15,7 C 6,4 km/h (2 Bft)
15.07.2017 14:00 24,8 C 17,5 C 46 % 69 % 1021,0 hPa 0,0 l/m 6,3 km/h (2 Bft) NW 1,00 h 4,3 UV-I 492 W/m 11,6 C 16,9 C 10,0 km/h (2 Bft)
15.07.2017 15:00 24,6 C 16,7 C 46 % 69 % 1021,4 hPa 0,0 l/m 3,1 km/h (1 Bft) NW 0,73 h 1,6 UV-I 196 W/m 10,9 C 16,5 C 6,5 km/h (2 Bft)
15.07.2017 16:00 24,9 C 16,6 C 46 % 69 % 1021,6 hPa 0,0 l/m 5,0 km/h (1 Bft) W-NW 1,00 h 1,9 UV-I 260 W/m 10,9 C 16,1 C 8,7 km/h (2 Bft)
15.07.2017 17:00 24,8 C 17,0 C 46 % 68 % 1021,6 hPa 0,0 l/m 3,2 km/h (1 Bft) W-NW 0,98 h 1,9 UV-I 308 W/m 11,1 C 16,8 C 6,6 km/h (2 Bft)
15.07.2017 18:00 24,4 C 16,3 C 45 % 70 % 1021,5 hPa 0,0 l/m 0,1 km/h (0 Bft) W-NW 0,03 h 0,8 UV-I 70 W/m 10,9 C 16,3 C 0,6 km/h (0 Bft)
15.07.2017 19:00 24,7 C 16,6 C 47 % 71 % 1022,0 hPa 0,0 l/m 4,2 km/h (1 Bft) W 0,00 h 0,5 UV-I 89 W/m 11,2 C 16,4 C 9,1 km/h (2 Bft)
15.07.2017 20:00 25,1 C 14,8 C 48 % 76 % 1022,5 hPa 0,0 l/m 0,2 km/h (0 Bft) W 0,00 h 0,0 UV-I 11 W/m 10,7 C 14,8 C 0,9 km/h (0 Bft)
15.07.2017 21:00 25,2 C 13,5 C 48 % 84 % 1023,1 hPa 0,0 l/m 0,0 km/h (0 Bft) N 0,00 h 0,0 UV-I 0 W/m 10,9 C 13,5 C 0,0 km/h (0 Bft)
15.07.2017 22:00 25,3 C 12,9 C 48 % 88 % 1023,5 hPa 0,0 l/m 0,0 km/h (0 Bft) N 0,00 h 0,0 UV-I 0 W/m 10,9 C 12,9 C 0,0 km/h (0 Bft)
15.07.2017 23:00 25,2 C 12,3 C 48 % 90 % 1023,8 hPa 0,0 l/m 0,0 km/h (0 Bft) N 0,00 h 0,0 UV-I 0 W/m 10,6 C 12,3 C 0,0 km/h (0 Bft)
16.07.2017 00:00 24,9 C 11,2 C 48 % 93 % 1024,1 hPa 0,0 l/m 0,0 km/h (0 Bft) N 0,00 h 0,0 UV-I 0 W/m 10,1 C 11,2 C 0,0 km/h (0 Bft)
16.07.2017 01:00 24,8 C 10,0 C 48 % 95 % 1024,2 hPa 0,0 l/m 0,0 km/h (0 Bft) N 0,00 h 0,0 UV-I 0 W/m 9,2 C 10,0 C 0,0 km/h (0 Bft)
16.07.2017 02:00 24,7 C 9,0 C 48 % 95 % 1024,1 hPa 0,0 l/m 0,0 km/h (0 Bft) N 0,00 h 0,0 UV-I 0 W/m 8,3 C 9,0 C 0,0 km/h (0 Bft)
16.07.2017 03:00 24,6 C 8,2 C 48 % 96 % 1024,0 hPa 0,0 l/m 0,0 km/h (0 Bft) N 0,00 h 0,0 UV-I 0 W/m 7,6 C 8,2 C 0,0 km/h (0 Bft)
16.07.2017 04:00 24,5 C 7,7 C 48 % 96 % 1024,2 hPa 0,0 l/m 0,0 km/h (0 Bft) N 0,00 h 0,0 UV-I 0 W/m 7,1 C 7,7 C 0,0 km/h (0 Bft)
16.07.2017 05:00 24,4 C 7,1 C 47 % 96 % 1024,3 hPa 0,0 l/m 0,0 km/h (0 Bft) N 0,00 h 0,0 UV-I 9 W/m 6,6 C 7,1 C 0,0 km/h (0 Bft)
16.07.2017 06:00 24,4 C 7,2 C 47 % 97 % 1024,6 hPa 0,0 l/m 0,0 km/h (0 Bft) N 0,00 h 0,0 UV-I 19 W/m 6,8 C 7,2 C 0,0 km/h (0 Bft)
16.07.2017 07:00 24,3 C 9,1 C 47 % 96 % 1025,0 hPa 0,0 l/m 0,0 km/h (0 Bft) N 0,42 h 0,9 UV-I 148 W/m 8,6 C 9,1 C 0,0 km/h (0 Bft)
16.07.2017 08:00 24,5 C 12,9 C 47 % 90 % 1025,2 hPa 0,0 l/m 0,0 km/h (0 Bft) N 1,00 h 1,6 UV-I 440 W/m 11,2 C 12,9 C 0,0 km/h (0 Bft)
16.07.2017 09:00 24,6 C 16,2 C 47 % 80 % 1025,2 hPa 0,0 l/m 0,6 km/h (0 Bft) S 0,97 h 2,7 UV-I 520 W/m 12,7 C 16,2 C 0,9 km/h (0 Bft)
16.07.2017 10:00 24,8 C 18,1 C 48 % 68 % 1025,0 hPa 0,0 l/m 1,9 km/h (1 Bft) W-SW 0,80 h 4,0 UV-I 599 W/m 12,0 C 18,1 C 4,7 km/h (1 Bft)
16.07.2017 11:00 24,6 C 19,7 C 46 % 61 % 1024,7 hPa 0,0 l/m 3,7 km/h (1 Bft) S 1,00 h 5,5 UV-I 807 W/m 12,0 C 19,5 C 8,1 km/h (2 Bft)
16.07.2017 12:00 24,4 C 20,9 C 45 % 54 % 1024,3 hPa 0,0 l/m 2,3 km/h (1 Bft) SW 1,00 h 6,2 UV-I 758 W/m 11,2 C 20,9 C 6,4 km/h (2 Bft)
16.07.2017 13:00 24,4 C 20,8 C 44 % 53 % 1023,9 hPa 0,0 l/m 2,9 km/h (1 Bft) W 1,00 h 5,6 UV-I 609 W/m 11,0 C 20,7 C 6,9 km/h (2 Bft)
16.07.2017 14:00 24,4 C 21,2 C 44 % 52 % 1023,3 hPa 0,0 l/m 1,6 km/h (1 Bft) W-SW 1,00 h 4,7 UV-I 550 W/m 11,0 C 21,2 C 4,4 km/h (1 Bft)
16.07.2017 15:00 24,4 C 21,8 C 43 % 49 % 1022,9 hPa 0,0 l/m 3,3 km/h (1 Bft) W-SW 0,97 h 4,2 UV-I 512 W/m 10,5 C 21,6 C 7,8 km/h (2 Bft)
16.07.2017 16:00 24,4 C 21,8 C 43 % 49 % 1022,7 hPa 0,0 l/m 2,9 km/h (1 Bft) SW 1,00 h 3,1 UV-I 507 W/m 10,6 C 21,7 C 7,1 km/h (2 Bft)
16.07.2017 17:00 24,7 C 22,0 C 44 % 48 % 1022,4 hPa 0,0 l/m 4,0 km/h (1 Bft) W-SW 1,00 h 2,3 UV-I 424 W/m 10,5 C 21,8 C 8,8 km/h (2 Bft)
16.07.2017 18:00 24,8 C 21,2 C 43 % 49 % 1022,1 hPa 0,0 l/m 4,8 km/h (1 Bft) W-SW 0,60 h 0,9 UV-I 155 W/m 10,0 C 21,0 C 9,9 km/h (2 Bft)
16.07.2017 19:00 24,9 C 20,5 C 45 % 52 % 1022,1 hPa 0,0 l/m 2,0 km/h (1 Bft) W 0,00 h 0,5 UV-I 74 W/m 10,2 C 20,5 C 6,1 km/h (2 Bft)
16.07.2017 20:00 25,0 C 19,8 C 46 % 56 % 1022,0 hPa 0,0 l/m 0,1 km/h (0 Bft) W-SW 0,00 h 0,0 UV-I 26 W/m 10,7 C 19,8 C 0,5 km/h (0 Bft)
16.07.2017 21:00 25,1 C 18,9 C 46 % 62 % 1022,0 hPa 0,0 l/m 0,0 km/h (0 Bft) N 0,00 h 0,0 UV-I 0 W/m 11,5 C 18,9 C 0,0 km/h (0 Bft)
16.07.2017 22:00 25,2 C 18,2 C 48 % 68 % 1022,1 hPa 0,0 l/m 0,0 km/h (0 Bft) N 0,00 h 0,0 UV-I 0 W/m 12,1 C 18,2 C 0,0 km/h (0 Bft)
16.07.2017 23:00 25,1 C 17,5 C 48 % 74 % 1021,9 hPa 0,0 l/m 0,0 km/h (0 Bft) N 0,00 h 0,0 UV-I 0 W/m 12,7 C 17,5 C 0,0 km/h (0 Bft)
Min-Datum _ 14.07.17 10.07.17 13.07.17 14.07.17 10.07.17 - 10.07.17 - - - - 16.07.17 15.07.17 10.07.17
_ Min-Zeit 05:51 03:13 18:15 13:33 14:57 - 00:00 - - - - 05:56 01:50 00:00
Minimum _ 24,2 C 0,0 C 38 % 44 % 1006,2 hPa - 0,0 km/h (0 Bft) - - - - 6,3 C 4,4 C 0,0 km/h (0 Bft)
Max-Datum _ 10.07.17 10.07.17 10.07.17 15.07.17 16.07.17 11.07.17 14.07.17 - 10.07.17 16.07.17 13.07.17 10.07.17 10.07.17 14.07.17
_ Max-Zeit 21:47 14:54 07:57 07:42 09:12 13:37 19:01 - 12:23 13:24 12:54 12:20 15:24 19:02
Maximum _ 27,2 C 26,1 C 59 % 98 % 1025,4 hPa 8,2 l/m 27,4 km/h
NW (4 Bft)
- 0,03 h 8,7 UV-I 1208 W/m 19,4 C 25,8 C 38,6 km/h
NW (5 Bft)
Durchschnitt _ 25,6 C 16,0 C 51 % 80 % 1015,5 hPa #51,0 l/m 2,6 km/h (1 Bft) W-SW #60:29 h 2,5 UV-I 250 W/m 12,2 C 15,8 C 5,4 km/h (1 Bft)